Time;durP1;ratioP1;P1;durP2;ratioP2;P2;SDS_P1;SDS_P2;PMS_P1;PMS_P2;Temp;Humidity;BMP_temperature;BMP_pressure;BME280_temperature;BME280_humidity;BME280_pressure;Samples;Min_cycle;Max_cycle;Signal;HPM_P1;HPM_P2
2023/03/03 00:02:16;;;;;;;;;14.50;11.00;;;;;23.02;29.76;101471.75;5071764;28;56803;-75
2023/03/03 00:04:41;;;;;;;;;11.50;10.00;;;;;23.03;29.70;101479.66;5076990;27;65997;-75
2023/03/03 00:07:07;;;;;;;;;11.00;9.00;;;;;23.02;30.09;101475.28;5075809;27;61045;-74
2023/03/03 00:09:32;;;;;;;;;12.00;9.75;;;;;23.01;29.71;101470.91;5073580;28;45274;-74
2023/03/03 00:11:59;;;;;;;;;11.25;10.00;;;;;22.99;29.83;101464.81;5071028;28;60389;-75
2023/03/03 00:14:29;;;;;;;;;14.00;9.00;;;;;23.02;29.94;101477.09;5074635;28;45544;-75
2023/03/03 00:16:55;;;;;;;;;13.50;8.50;;;;;22.98;29.57;101471.09;5076208;27;45551;-75
2023/03/03 00:19:22;;;;;;;;;11.00;9.50;;;;;22.98;29.63;101480.94;5056575;28;45263;-74
2023/03/03 00:21:48;;;;;;;;;10.00;9.00;;;;;22.97;29.52;101472.06;5073438;27;45343;-74
2023/03/03 00:24:20;;;;;;;;;11.75;10.25;;;;;22.99;29.52;101471.97;5053892;28;45831;-75
2023/03/03 00:26:51;;;;;;;;;8.25;8.25;;;;;22.98;29.65;101481.78;5071918;28;47507;-75
2023/03/03 00:29:35;;;;;;;;;12.00;11.00;;;;;22.95;29.52;101484.69;5049409;28;45952;-75
2023/03/03 00:32:19;;;;;;;;;11.75;9.25;;;;;22.94;29.76;101475.78;5074868;27;45527;-75
2023/03/03 00:34:44;;;;;;;;;12.25;9.50;;;;;22.94;29.41;101477.63;5075898;28;45386;-75
2023/03/03 00:37:21;;;;;;;;;13.50;11.00;;;;;22.91;29.80;101477.81;5058588;28;47012;-76
2023/03/03 00:39:46;;;;;;;;;11.00;9.50;;;;;22.92;29.54;101472.38;5070096;27;45343;-76
2023/03/03 00:42:16;;;;;;;;;9.00;8.50;;;;;22.92;29.47;101477.72;5073337;27;64859;-76
2023/03/03 00:44:56;;;;;;;;;10.25;9.50;;;;;22.91;29.50;101470.69;5055088;28;45573;-75
2023/03/03 00:47:31;;;;;;;;;10.50;8.50;;;;;22.89;29.61;101472.56;5070018;28;46083;-76
2023/03/03 00:50:05;;;;;;;;;13.75;10.00;;;;;22.92;29.27;101471.53;5076963;27;45450;-76
2023/03/03 00:52:46;;;;;;;;;9.50;9.00;;;;;22.89;29.79;101480.59;5069893;28;45526;-76
2023/03/03 00:55:12;;;;;;;;;12.50;10.00;;;;;22.84;29.21;101465.84;5075252;28;45386;-76
2023/03/03 00:57:37;;;;;;;;;8.00;8.00;;;;;22.86;29.38;101477.25;5074464;27;59430;-75
2023/03/03 01:00:03;;;;;;;;;13.00;10.50;;;;;22.85;29.35;101471.09;5066819;27;45878;-76
2023/03/03 01:02:29;;;;;;;;;9.75;8.50;;;;;22.84;29.21;101468.50;5070097;27;45527;-76
2023/03/03 01:04:55;;;;;;;;;9.50;8.25;;;;;22.86;29.81;101475.47;5073642;28;45628;-75
2023/03/03 01:07:20;;;;;;;;;11.75;9.50;;;;;22.86;29.15;101475.47;5051752;28;48433;-75
2023/03/03 01:09:46;;;;;;;;;13.50;10.75;;;;;22.85;29.34;101472.91;5078637;27;67957;-75
2023/03/03 01:12:11;;;;;;;;;11.25;9.00;;;;;22.81;29.67;101479.41;5057022;28;70440;-76
2023/03/03 01:14:37;;;;;;;;;11.00;8.00;;;;;22.84;29.31;101489.84;5074296;27;45701;-76
2023/03/03 01:17:02;;;;;;;;;10.25;9.50;;;;;22.82;29.68;101484.63;5075599;28;46302;-75
2023/03/03 01:19:28;;;;;;;;;11.50;8.25;;;;;22.78;29.48;101476.94;5069247;27;45485;-75
2023/03/03 01:21:53;;;;;;;;;7.25;7.00;;;;;22.82;29.85;101483.78;5055873;28;45615;-75
2023/03/03 01:24:18;;;;;;;;;7.75;7.00;;;;;22.80;29.84;101486.53;5073552;28;71320;-75
2023/03/03 01:26:44;;;;;;;;;10.00;7.00;;;;;22.83;29.54;101490.84;5071572;27;69923;-75
2023/03/03 01:29:09;;;;;;;;;6.00;5.00;;;;;22.82;30.24;101486.44;5065343;28;73480;-75
2023/03/03 01:31:34;;;;;;;;;6.50;6.50;;;;;22.85;29.43;101497.78;5049826;28;45783;-75
2023/03/03 01:34:00;;;;;;;;;7.25;6.75;;;;;22.87;29.82;101492.34;5074789;27;59369;-75
2023/03/03 01:36:26;;;;;;;;;11.00;9.00;;;;;22.86;29.17;101485.28;5067907;28;62950;-75
2023/03/03 01:38:51;;;;;;;;;9.25;9.25;;;;;22.84;29.24;101487.19;5071540;28;45289;-75
2023/03/03 01:41:17;;;;;;;;;8.25;7.00;;;;;22.87;29.44;101479.00;5075228;27;45255;-75
2023/03/03 01:43:48;;;;;;;;;10.25;9.00;;;;;22.88;29.28;101486.06;5067952;28;54817;-75
2023/03/03 01:46:28;;;;;;;;;10.00;8.25;;;;;22.89;29.58;101474.41;5057135;28;48444;-75
2023/03/03 01:49:01;;;;;;;;;11.00;9.00;;;;;22.85;29.59;101464.91;5074574;27;45931;-75
2023/03/03 01:51:35;;;;;;;;;11.75;9.00;;;;;22.86;29.19;101469.25;5059326;28;45407;-75
2023/03/03 01:54:02;;;;;;;;;8.00;7.75;;;;;22.87;29.32;101468.31;5073870;27;45452;-76
2023/03/03 01:56:28;;;;;;;;;11.25;9.50;;;;;22.88;29.20;101470.88;5078659;27;45310;-76
2023/03/03 01:59:05;;;;;;;;;9.00;8.50;;;;;22.89;29.48;101472.56;5076715;27;45552;-76
2023/03/03 02:01:31;;;;;;;;;8.25;7.50;;;;;22.90;29.26;101468.97;5044805;28;45321;-76
2023/03/03 02:03:57;;;;;;;;;8.50;8.50;;;;;22.89;29.27;101472.56;5068082;28;45573;-76
2023/03/03 02:06:26;;;;;;;;;11.75;10.00;;;;;22.91;28.90;101473.34;5071536;27;48119;-75
2023/03/03 02:08:58;;;;;;;;;7.75;7.75;;;;;22.92;29.26;101474.19;5065513;28;45871;-75
2023/03/03 02:11:23;;;;;;;;;9.50;9.50;;;;;22.90;29.39;101473.44;5074630;27;45437;-75
2023/03/03 02:13:49;;;;;;;;;11.25;8.25;;;;;22.89;29.19;101463.72;5074106;27;70971;-75
2023/03/03 02:16:14;;;;;;;;;8.25;7.75;;;;;22.88;29.42;101468.22;5053544;28;52704;-75
2023/03/03 02:18:39;;;;;;;;;8.25;8.00;;;;;22.88;29.25;101460.22;5059962;28;45472;-75
2023/03/03 02:21:12;;;;;;;;;9.00;8.25;;;;;22.92;29.20;101471.53;5062452;28;61420;-76
2023/03/03 02:23:47;;;;;;;;;8.00;6.00;;;;;22.90;29.21;101462.78;5067547;28;45477;-75
2023/03/03 02:26:18;;;;;;;;;10.00;7.25;;;;;22.90;29.18;101463.63;5043067;27;46559;-75
2023/03/03 02:28:43;;;;;;;;;12.00;8.50;;;;;22.90;29.49;101462.78;5085037;27;45785;-76
2023/03/03 02:31:14;;;;;;;;;12.00;7.75;;;;;22.88;28.92;101465.53;5070798;27;45509;-76
2023/03/03 02:33:45;;;;;;;;;8.25;8.25;;;;;22.89;28.90;101463.72;5055185;28;45506;-76
2023/03/03 02:36:19;;;;;;;;;13.25;9.75;;;;;22.87;28.91;101461.16;5062353;28;48131;-76
2023/03/03 02:38:59;;;;;;;;;9.75;6.75;;;;;22.88;29.51;101464.69;5078775;27;45401;-76
2023/03/03 02:41:29;;;;;;;;;8.50;7.25;;;;;22.88;29.37;101467.38;5075800;28;45249;-76
2023/03/03 02:44:01;;;;;;;;;9.50;8.25;;;;;22.86;29.18;101464.81;5056142;28;45639;-75
2023/03/03 02:46:28;;;;;;;;;9.75;8.25;;;;;22.87;29.35;101462.97;5071509;28;45318;-75
2023/03/03 02:48:53;;;;;;;;;7.75;7.75;;;;;22.85;29.26;101463.06;5078461;27;45260;-75
2023/03/03 02:51:19;;;;;;;;;11.25;8.25;;;;;22.81;29.55;101453.56;5074801;27;57942;-75
2023/03/03 02:53:44;;;;;;;;;9.00;6.25;;;;;22.85;29.52;101465.75;5074425;28;60327;-76
2023/03/03 02:56:10;;;;;;;;;10.75;9.25;;;;;22.85;29.38;101467.56;5078164;27;46064;-76
2023/03/03 02:58:36;;;;;;;;;10.00;8.25;;;;;22.84;29.00;101471.19;5062840;28;45473;-76
2023/03/03 03:01:02;;;;;;;;;14.75;9.25;;;;;22.84;29.42;101464.06;5076735;27;45395;-76
2023/03/03 03:03:28;;;;;;;;;8.50;6.00;;;;;22.80;29.20;101465.19;5069958;27;45892;-75
2023/03/03 03:05:53;;;;;;;;;14.50;9.75;;;;;22.82;29.35;101468.59;5066504;28;63187;-75
2023/03/03 03:08:18;;;;;;;;;9.25;7.50;;;;;22.80;29.13;101462.53;5058297;28;75774;-76
2023/03/03 03:10:44;;;;;;;;;8.00;8.00;;;;;22.80;29.39;101459.84;5072025;27;45552;-76
2023/03/03 03:13:09;;;;;;;;;9.00;8.25;;;;;22.78;28.96;101460.94;5077921;28;48657;-76
2023/03/03 03:15:35;;;;;;;;;7.75;7.75;;;;;22.79;29.37;101457.28;5067364;28;46234;-76
2023/03/03 03:18:00;;;;;;;;;9.00;6.50;;;;;22.79;29.34;101449.28;5061430;27;69495;-76
2023/03/03 03:20:26;;;;;;;;;7.50;6.00;;;;;22.78;29.49;101458.25;5066472;28;45350;-77
2023/03/03 03:22:51;;;;;;;;;8.75;7.00;;;;;22.79;29.53;101460.84;5065617;28;45250;-76
2023/03/03 03:25:17;;;;;;;;;9.75;7.50;;;;;22.81;29.33;101458.91;5071797;27;45812;-75
2023/03/03 03:27:42;;;;;;;;;8.50;6.50;;;;;22.82;29.20;101457.94;5077179;28;46639;-76
2023/03/03 03:30:08;;;;;;;;;5.75;5.25;;;;;22.82;29.35;101457.09;5090996;27;45373;-75
2023/03/03 03:32:33;;;;;;;;;9.75;8.75;;;;;22.82;29.52;101451.75;5069357;28;45354;-76
2023/03/03 03:34:58;;;;;;;;;8.25;7.00;;;;;22.81;29.40;101453.56;5071430;28;46337;-76
2023/03/03 03:37:24;;;;;;;;;7.00;6.25;;;;;22.82;29.12;101451.75;5065359;27;45249;-76
2023/03/03 03:39:49;;;;;;;;;8.75;8.00;;;;;22.81;29.03;101458.06;5075035;28;45415;-76
2023/03/03 03:42:15;;;;;;;;;10.75;10.00;;;;;22.81;29.32;101450.06;5066175;27;58208;-76
2023/03/03 03:44:40;;;;;;;;;12.25;8.50;;;;;22.85;29.19;101470.22;5074442;27;45540;-76
2023/03/03 03:47:05;;;;;;;;;12.75;9.75;;;;;22.80;29.25;101456.34;5077245;28;45353;-76
2023/03/03 03:49:30;;;;;;;;;10.50;9.00;;;;;22.83;28.84;101466.81;5086612;27;67985;-76
2023/03/03 03:51:56;;;;;;;;;13.75;9.00;;;;;22.82;29.23;101473.09;5060672;28;72117;-76
2023/03/03 03:54:21;;;;;;;;;9.00;7.50;;;;;22.87;29.12;101479.00;5074191;28;45867;-76
2023/03/03 03:56:47;;;;;;;;;15.00;12.75;;;;;22.87;29.41;101477.16;5067869;27;61334;-76
2023/03/03 03:59:12;;;;;;;;;8.25;7.00;;;;;22.88;29.15;101480.72;5071892;27;62523;-76
2023/03/03 04:01:37;;;;;;;;;13.00;10.00;;;;;22.85;29.01;101484.44;5065256;27;71362;-76
2023/03/03 04:04:03;;;;;;;;;10.50;8.75;;;;;22.87;29.12;101476.31;5075814;27;46198;-76
2023/03/03 04:06:29;;;;;;;;;9.75;9.00;;;;;22.86;29.42;101480.81;5073600;28;45748;-76
2023/03/03 04:08:54;;;;;;;;;8.00;6.25;;;;;22.85;29.34;101486.25;5073701;28;45283;-76
2023/03/03 04:11:20;;;;;;;;;12.00;8.00;;;;;22.85;29.05;101489.75;5071825;27;45549;-76
2023/03/03 04:13:45;;;;;;;;;11.00;7.75;;;;;22.86;28.78;101485.28;5070813;28;74110;-76
2023/03/03 04:16:10;;;;;;;;;12.75;9.25;;;;;22.86;29.27;101485.28;5069055;28;71812;-76
2023/03/03 04:18:36;;;;;;;;;12.25;9.00;;;;;22.85;29.35;101483.56;5070166;28;45366;-76
2023/03/03 04:21:01;;;;;;;;;10.75;8.25;;;;;22.85;28.84;101486.25;5059407;27;45554;-76
2023/03/03 04:23:26;;;;;;;;;8.50;5.75;;;;;22.83;29.36;101486.34;5076491;28;67101;-76
2023/03/03 04:25:52;;;;;;;;;10.00;9.25;;;;;22.84;28.99;101488.06;5057489;28;65160;-76
2023/03/03 04:28:17;;;;;;;;;10.75;7.25;;;;;22.79;29.08;101490.19;5061866;28;66943;-75
2023/03/03 04:30:43;;;;;;;;;12.75;8.75;;;;;22.82;29.28;101500.63;5066724;27;46070;-76
2023/03/03 04:33:08;;;;;;;;;10.25;9.00;;;;;22.82;29.30;101503.31;5059823;28;47096;-76
2023/03/03 04:35:34;;;;;;;;;8.00;7.75;;;;;22.76;29.13;101485.03;5066109;28;45335;-76
2023/03/03 04:37:59;;;;;;;;;7.75;7.00;;;;;22.80;29.30;101499.88;5074477;28;45318;-76
2023/03/03 04:40:24;;;;;;;;;9.25;8.00;;;;;22.78;29.46;101499.13;5069431;28;45538;-76
2023/03/03 04:42:50;;;;;;;;;7.75;6.75;;;;;22.81;29.26;101514.09;5070066;28;64119;-76
2023/03/03 04:45:15;;;;;;;;;11.25;8.75;;;;;22.75;29.41;101489.53;5070345;28;45394;-76
2023/03/03 04:47:41;;;;;;;;;6.00;6.00;;;;;22.77;29.31;101504.56;5078378;28;45402;-76
2023/03/03 04:50:08;;;;;;;;;9.50;8.50;;;;;22.78;28.88;101507.13;5071048;27;45346;-76
2023/03/03 04:52:34;;;;;;;;;9.00;7.00;;;;;22.77;28.77;101500.13;5060684;28;46906;-76
2023/03/03 04:54:59;;;;;;;;;10.00;8.75;;;;;22.77;28.89;101493.91;5070200;27;45447;-76
2023/03/03 04:57:24;;;;;;;;;9.00;6.00;;;;;22.74;29.19;101494.97;5074862;28;45229;-76
2023/03/03 04:59:50;;;;;;;;;10.00;7.50;;;;;22.72;29.17;101486.22;5074007;28;61485;-76
2023/03/03 05:02:16;;;;;;;;;8.00;7.25;;;;;22.80;28.98;101496.38;5057301;28;47218;-76
2023/03/03 05:04:41;;;;;;;;;8.75;8.00;;;;;22.80;29.33;101494.53;5075948;28;45557;-76
2023/03/03 05:07:07;;;;;;;;;9.25;7.00;;;;;22.79;28.86;101495.53;5075104;27;45492;-76
2023/03/03 05:09:32;;;;;;;;;8.25;6.50;;;;;22.81;29.13;101498.94;5063962;27;45342;-76
2023/03/03 05:11:58;;;;;;;;;8.75;7.75;;;;;22.82;29.45;101500.63;5067814;28;45466;-75
2023/03/03 05:14:23;;;;;;;;;10.25;8.00;;;;;22.81;29.08;101490.09;5075975;27;60963;-76
2023/03/03 05:16:48;;;;;;;;;11.25;10.25;;;;;22.81;28.77;101498.94;5066763;28;45402;-76
2023/03/03 05:19:14;;;;;;;;;9.75;8.00;;;;;22.84;29.01;101503.22;5077223;28;73156;-76
2023/03/03 05:21:41;;;;;;;;;9.00;9.00;;;;;22.81;29.03;101501.59;5056682;28;69421;-75
2023/03/03 05:24:07;;;;;;;;;10.50;10.00;;;;;22.83;28.69;101507.69;5063742;27;45878;-76
2023/03/03 05:26:33;;;;;;;;;11.25;8.75;;;;;22.85;29.26;101502.25;5071123;28;45305;-76
2023/03/03 05:28:58;;;;;;;;;7.00;7.00;;;;;22.85;28.64;101503.09;5043014;28;45355;-76
2023/03/03 05:31:26;;;;;;;;;10.25;9.75;;;;;22.83;29.06;101498.84;5068469;28;68704;-76
2023/03/03 05:33:51;;;;;;;;;9.75;9.50;;;;;22.79;28.70;101489.31;5066098;28;45856;-76
2023/03/03 05:36:17;;;;;;;;;12.75;10.50;;;;;22.83;29.13;101507.69;5062286;28;45394;-76
2023/03/03 05:38:42;;;;;;;;;7.75;7.50;;;;;22.84;29.04;101506.75;5074177;28;45451;-75
2023/03/03 05:41:08;;;;;;;;;8.25;7.75;;;;;22.84;29.37;101504.09;5055416;28;65403;-76
2023/03/03 05:43:33;;;;;;;;;10.25;9.75;;;;;22.84;28.75;101511.22;5072289;28;45461;-76
2023/03/03 05:45:58;;;;;;;;;11.00;8.00;;;;;22.83;29.09;101499.69;5077197;27;63330;-75
2023/03/03 05:48:24;;;;;;;;;10.50;9.50;;;;;22.84;29.07;101500.53;5064682;27;45387;-76
2023/03/03 05:50:49;;;;;;;;;9.75;8.75;;;;;22.79;29.03;101500.84;5071778;28;45276;-76
2023/03/03 05:53:14;;;;;;;;;8.00;8.00;;;;;22.84;29.29;101511.22;5065627;27;61427;-76
2023/03/03 05:55:40;;;;;;;;;10.25;7.00;;;;;22.78;28.72;101504.47;5069762;28;63497;-76
2023/03/03 05:58:05;;;;;;;;;11.25;9.50;;;;;22.82;29.28;101516.66;5066480;27;45595;-77
2023/03/03 06:00:30;;;;;;;;;10.50;8.75;;;;;22.78;29.17;101504.47;5065391;28;46049;-77
2023/03/03 06:02:56;;;;;;;;;9.00;8.50;;;;;22.78;29.00;101503.63;5065929;27;50099;-76
2023/03/03 06:05:21;;;;;;;;;7.75;6.75;;;;;22.79;28.81;101505.31;5080345;27;49613;-77
2023/03/03 06:07:47;;;;;;;;;8.50;8.50;;;;;22.77;29.10;101510.78;5067760;27;72071;-77
2023/03/03 06:10:12;;;;;;;;;10.00;8.25;;;;;22.80;28.88;101515.06;5080639;27;45391;-77
2023/03/03 06:12:38;;;;;;;;;9.00;8.00;;;;;22.72;29.01;101505.75;5060421;28;45730;-77
2023/03/03 06:15:05;;;;;;;;;8.00;8.00;;;;;22.77;29.22;101509.91;5062139;28;45379;-76
2023/03/03 06:17:30;;;;;;;;;8.50;7.25;;;;;22.78;28.87;101516.97;5067424;28;45416;-76
2023/03/03 06:19:55;;;;;;;;;9.00;8.25;;;;;22.77;29.15;101521.47;5067508;28;71361;-77
2023/03/03 06:22:21;;;;;;;;;11.00;9.00;;;;;22.74;29.13;101511.81;5072362;27;71256;-76
2023/03/03 06:24:46;;;;;;;;;8.00;8.00;;;;;22.77;29.52;101523.25;5080257;27;46289;-77
2023/03/03 06:27:11;;;;;;;;;9.25;8.50;;;;;22.70;29.33;101513.00;5078741;27;54774;-75
2023/03/03 06:29:37;;;;;;;;;7.75;6.25;;;;;22.73;29.63;101530.59;5055472;27;45288;-75
2023/03/03 06:32:02;;;;;;;;;9.50;6.50;;;;;22.77;29.04;101531.25;5066472;27;45451;-76
2023/03/03 06:34:27;;;;;;;;;7.50;6.50;;;;;22.78;29.31;101543.66;5073234;27;45464;-75
2023/03/03 06:36:59;;;;;;;;;8.00;7.50;;;;;22.74;29.08;101535.84;5078088;27;59384;-76
2023/03/03 06:39:24;;;;;;;;;8.25;7.75;;;;;22.75;29.02;101539.38;5063752;27;48248;-75
2023/03/03 06:41:49;;;;;;;;;7.00;5.75;;;;;22.74;29.02;101543.84;5078350;27;67464;-76
2023/03/03 06:44:15;;;;;;;;;8.25;7.00;;;;;22.78;28.97;101541.84;5057105;28;55952;-77
2023/03/03 06:46:40;;;;;;;;;10.50;9.25;;;;;22.79;28.80;101551.56;5067556;28;62950;-77
2023/03/03 06:49:05;;;;;;;;;9.25;6.75;;;;;22.78;29.31;101551.66;5069641;27;46978;-76
2023/03/03 06:51:35;;;;;;;;;8.75;7.25;;;;;22.83;29.13;101568.22;5055165;28;47333;-77
2023/03/03 06:54:14;;;;;;;;;7.75;7.00;;;;;22.83;28.94;101569.09;5071867;27;45478;-77
2023/03/03 06:56:41;;;;;;;;;10.25;9.50;;;;;22.81;29.40;101562.16;5055336;27;45421;-77
2023/03/03 06:59:13;;;;;;;;;6.75;6.75;;;;;22.82;29.45;101569.19;5076638;27;46755;-76
2023/03/03 07:01:39;;;;;;;;;9.25;6.25;;;;;22.81;29.24;101575.50;5055666;28;45305;-76
2023/03/03 07:04:27;;;;;;;;;5.25;3.50;;;;;22.85;29.30;101591.19;5075319;27;45482;-76
2023/03/03 07:06:57;;;;;;;;;5.75;5.25;;;;;22.85;28.94;101593.84;5076007;27;45549;-76
2023/03/03 07:09:25;;;;;;;;;37.50;30.50;;;;;22.85;28.69;101596.53;5061548;28;47286;-81
2023/03/03 07:11:52;;;;;;;;;21.00;15.00;;;;;22.75;28.89;101590.94;5074407;28;45882;-76
2023/03/03 07:14:19;;;;;;;;;19.50;18.25;;;;;22.70;29.03;101598.38;5056202;28;45442;-81
2023/03/03 07:16:44;;;;;;;;;23.50;17.25;;;;;22.64;29.08;101598.75;5066209;27;45415;-81
2023/03/03 07:19:25;;;;;;;;;19.00;16.75;;;;;22.64;29.00;101606.78;5069864;28;45574;-84
2023/03/03 07:21:53;;;;;;;;;22.50;18.25;;;;;22.64;29.16;101605.91;5079160;28;45340;-85
2023/03/03 07:24:26;;;;;;;;;21.75;17.25;;;;;22.66;29.39;101612.84;5077449;27;45446;-89
2023/03/03 07:26:54;;;;;;;;;20.50;18.00;;;;;22.64;29.53;101601.44;5062814;27;45509;-78
2023/03/03 07:29:25;;;;;;;;;18.50;17.00;;;;;22.68;29.43;101607.44;5071450;27;46386;-84
2023/03/03 07:31:50;;;;;;;;;19.75;18.00;;;;;22.67;29.73;101608.41;5071653;27;45542;-80
2023/03/03 07:34:19;;;;;;;;;20.50;18.00;;;;;22.68;29.64;101618.09;5056766;28;45462;-82
2023/03/03 07:36:45;;;;;;;;;24.75;21.25;;;;;22.64;29.76;101612.09;5069137;28;45386;-80
2023/03/03 07:39:43;;;;;;;;;19.75;19.75;;;;;22.66;30.24;101614.69;5078047;27;45329;-81
2023/03/03 07:42:27;;;;;;;;;22.75;19.75;;;;;22.64;29.94;101616.59;5061256;27;45285;-83
2023/03/03 07:44:55;;;;;;;;;20.50;19.25;;;;;22.67;29.57;101619.91;5069105;28;45437;-81
2023/03/03 07:47:34;;;;;;;;;27.00;19.75;;;;;22.67;30.16;101629.75;5053308;28;45620;-83
2023/03/03 07:50:12;;;;;;;;;22.25;19.75;;;;;22.67;29.59;101635.09;5071317;27;46394;-85
2023/03/03 07:52:40;;;;;;;;;24.25;21.00;;;;;22.66;29.57;101634.19;5064582;28;45473;-75
2023/03/03 07:55:26;;;;;;;;;22.00;18.50;;;;;22.66;29.78;101636.88;5094277;27;45354;-74
2023/03/03 07:57:53;;;;;;;;;24.25;20.25;;;;;22.65;30.32;101637.00;5077341;28;45461;-70
2023/03/03 08:00:18;;;;;;;;;30.50;24.75;;;;;22.65;29.66;101637.00;5073602;27;45785;-72
2023/03/03 08:03:04;;;;;;;;;36.00;22.33;;;;;22.60;29.75;101641.75;5068139;28;45542;-71
2023/03/03 08:05:31;;;;;;;;;27.00;20.75;;;;;22.61;29.98;101643.47;5056348;28;45529;-74
2023/03/03 08:08:09;;;;;;;;;18.25;18.00;;;;;22.60;29.79;101641.75;5063809;27;45485;-72
2023/03/03 08:10:37;;;;;;;;;20.50;16.75;;;;;22.59;29.40;101656.88;5067892;27;46083;-74
2023/03/03 08:13:17;;;;;;;;;19.25;17.00;;;;;22.57;29.87;101648.13;5088429;27;46157;-68
2023/03/03 08:15:44;;;;;;;;;17.25;17.00;;;;;22.53;29.48;101638.63;5060021;28;45452;-72
2023/03/03 08:18:19;;;;;;;;;19.75;11.00;;;;;22.58;29.69;101652.53;5072181;27;45714;-73
2023/03/03 08:20:54;;;;;;;;;17.50;15.00;;;;;22.53;30.07;101644.81;5050750;28;45453;-74
2023/03/03 08:23:20;;;;;;;;;19.00;16.00;;;;;22.61;29.77;101657.69;5068770;27;45849;-71
2023/03/03 08:25:47;;;;;;;;;14.00;12.75;;;;;22.58;29.68;101651.69;5064028;27;45429;-75
2023/03/03 08:28:12;;;;;;;;;18.25;14.25;;;;;22.57;29.61;101645.47;5056401;28;45567;-74
2023/03/03 08:30:38;;;;;;;;;16.50;15.25;;;;;22.53;29.81;101644.81;5066268;27;45257;-76
2023/03/03 08:33:03;;;;;;;;;14.00;13.25;;;;;22.56;29.72;101651.78;5064692;28;45311;-80
2023/03/03 08:35:29;;;;;;;;;12.50;12.25;;;;;22.58;29.95;101657.00;5055719;28;45457;-72
2023/03/03 08:37:54;;;;;;;;;15.25;14.25;;;;;22.54;29.86;101659.88;5093023;27;45535;-73
2023/03/03 08:40:20;;;;;;;;;15.75;12.00;;;;;22.56;29.56;101668.63;5072305;28;45634;-75
2023/03/03 08:42:45;;;;;;;;;17.75;14.50;;;;;22.59;29.82;101677.38;5076671;27;63990;-78
2023/03/03 08:45:10;;;;;;;;;16.75;13.00;;;;;22.59;29.70;101664.03;5073506;28;45552;-76
2023/03/03 08:47:37;;;;;;;;;15.25;13.75;;;;;22.62;29.89;101671.88;5059648;28;45407;-75
2023/03/03 08:50:02;;;;;;;;;14.25;13.25;;;;;22.61;30.03;101659.47;5060779;27;47716;-78
2023/03/03 08:52:27;;;;;;;;;15.75;12.50;;;;;22.62;29.92;101666.53;5070318;28;45469;-81
2023/03/03 08:54:53;;;;;;;;;17.00;14.75;;;;;22.65;29.89;101677.88;5078953;27;62032;-76
2023/03/03 08:57:18;;;;;;;;;17.00;15.00;;;;;22.64;29.88;101677.97;5056180;28;51125;-79
2023/03/03 08:59:46;;;;;;;;;14.75;12.00;;;;;22.68;30.34;101677.69;5069918;28;56566;-77
2023/03/03 09:02:11;;;;;;;;;13.50;12.25;;;;;22.68;30.02;101684.81;5078418;27;46003;-72
2023/03/03 09:04:37;;;;;;;;;13.00;11.50;;;;;22.68;30.50;101680.34;5069779;28;45544;-76
2023/03/03 09:07:02;;;;;;;;;14.75;12.75;;;;;22.59;30.32;101656.88;5062517;28;45347;-78
2023/03/03 09:09:28;;;;;;;;;14.50;12.25;;;;;22.51;29.71;101644.03;5056487;28;54444;-72
2023/03/03 09:11:59;;;;;;;;;17.00;12.75;;;;;22.75;30.27;101675.47;5054130;28;68041;-75
2023/03/03 09:14:27;;;;;;;;;16.75;15.50;;;;;22.83;30.29;101681.19;5075406;27;45405;-72
2023/03/03 09:16:53;;;;;;;;;13.00;11.50;;;;;22.85;29.83;101684.59;5080814;27;45448;-72
2023/03/03 09:19:29;;;;;;;;;16.25;13.00;;;;;22.87;30.14;101682.69;5058862;28;47327;-73
2023/03/03 09:21:57;;;;;;;;;15.00;12.00;;;;;22.81;30.18;101685.75;5054217;28;46076;-72
2023/03/03 09:24:24;;;;;;;;;13.25;13.25;;;;;22.86;30.04;101689.00;5061579;27;45453;-73
2023/03/03 09:26:51;;;;;;;;;15.25;11.00;;;;;22.79;30.12;101681.47;5071092;27;45610;-73
2023/03/03 09:29:28;;;;;;;;;12.00;11.75;;;;;22.82;30.26;101687.47;5069006;27;46291;-76
2023/03/03 09:32:00;;;;;;;;;10.75;9.75;;;;;22.83;30.05;101681.19;5069023;28;45724;-76
2023/03/03 09:34:35;;;;;;;;;16.00;8.75;;;;;22.91;30.06;101692.22;5071167;28;45658;-72
2023/03/03 09:37:00;;;;;;;;;13.50;12.50;;;;;22.92;30.32;101693.94;5071653;27;45508;-71
2023/03/03 09:39:29;;;;;;;;;13.75;12.00;;;;;22.91;30.00;101686.00;5068272;28;45413;-72
2023/03/03 09:42:13;;;;;;;;;11.50;11.50;;;;;22.96;29.99;101697.25;5076033;27;46952;-73
2023/03/03 09:45:06;;;;;;;;;13.75;12.00;;;;;22.99;30.11;101697.06;5074488;28;45431;-72
2023/03/03 09:48:29;;;;;;;;;13.00;11.50;;;;;23.01;29.98;101704.97;5096054;27;45606;-71
2023/03/03 09:51:00;;;;;;;;;14.50;10.50;;;;;23.03;29.73;101705.72;5054800;28;45404;-73
2023/03/03 09:53:37;;;;;;;;;13.00;12.50;;;;;23.05;29.84;101699.34;5039983;28;45480;-74
2023/03/03 09:56:18;;;;;;;;;15.25;11.25;;;;;23.07;29.71;101700.16;5089613;27;45350;-74
2023/03/03 09:59:09;;;;;;;;;15.25;10.75;;;;;23.09;29.85;101702.72;5071272;27;45512;-77
2023/03/03 10:01:37;;;;;;;;;11.25;10.25;;;;;23.11;29.86;101700.81;5063334;28;47085;-71
2023/03/03 10:04:42;;;;;;;;;12.50;11.00;;;;;23.11;29.92;101706.16;5081129;27;45282;-72
2023/03/03 10:07:19;;;;;;;;;10.00;7.50;;;;;23.20;29.78;101712.69;5096654;27;45481;-71
2023/03/03 10:10:03;;;;;;;;;13.00;12.00;;;;;23.23;30.08;101709.81;5075922;27;45784;-74
2023/03/03 10:12:47;;;;;;;;;11.50;11.50;;;;;23.28;30.02;101718.38;5095261;27;48224;-74
2023/03/03 10:15:25;;;;;;;;;10.00;10.00;;;;;23.33;30.44;101718.94;5078623;27;45430;-72
2023/03/03 10:18:18;;;;;;;;;9.75;9.75;;;;;23.36;30.30;101728.59;5082604;27;45439;-76
2023/03/03 10:21:15;;;;;;;;;8.50;8.25;;;;;23.41;30.59;101724.66;5075754;27;45453;-73
2023/03/03 10:23:55;;;;;;;;;11.75;8.50;;;;;23.47;30.34;101726.91;5075322;27;46929;-72
2023/03/03 10:26:49;;;;;;;;;13.75;9.75;;;;;23.55;30.52;101739.78;5063175;27;45280;-71
2023/03/03 10:29:33;;;;;;;;;16.75;11.50;;;;;23.58;30.25;101736.88;5071380;27;45489;-71
2023/03/03 10:32:01;;;;;;;;;12.50;11.00;;;;;23.62;30.25;101732.19;5073099;27;45540;-69
2023/03/03 10:34:45;;;;;;;;;12.25;10.25;;;;;23.65;30.35;101735.50;5070248;28;46194;-68
2023/03/03 10:37:23;;;;;;;;;10.50;10.00;;;;;23.68;30.67;101732.66;5064670;27;45413;-71
2023/03/03 10:40:11;;;;;;;;;10.00;9.25;;;;;23.73;31.08;101737.69;5087455;27;45523;-70
2023/03/03 10:42:46;;;;;;;;;10.25;9.25;;;;;23.76;30.53;101725.94;5068347;27;45466;-71
2023/03/03 10:45:34;;;;;;;;;11.75;10.50;;;;;23.81;30.70;101734.53;5066223;28;46623;-69
2023/03/03 10:48:22;;;;;;;;;13.00;9.75;;;;;23.83;30.85;101728.16;5075958;27;45402;-71
2023/03/03 10:51:15;;;;;;;;;10.50;10.50;;;;;23.85;30.63;101728.88;5072503;27;45291;-71
2023/03/03 10:54:05;;;;;;;;;10.25;8.50;;;;;23.88;31.27;101728.66;5072605;27;45416;-71
2023/03/03 10:57:03;;;;;;;;;11.75;10.25;;;;;23.95;30.81;101738.97;5062599;28;46182;-71
2023/03/03 10:59:47;;;;;;;;;11.50;9.75;;;;;23.97;31.44;101734.34;5066378;28;45868;-71
2023/03/03 11:02:21;;;;;;;;;6.50;6.50;;;;;23.96;31.05;101725.50;5073245;28;45459;-72
2023/03/03 11:04:56;;;;;;;;;11.75;10.00;;;;;24.02;31.16;101738.44;5055920;28;45651;-71
2023/03/03 11:07:33;;;;;;;;;9.00;8.75;;;;;24.06;31.49;101731.06;5066473;27;46264;-76
2023/03/03 11:10:28;;;;;;;;;12.25;9.00;;;;;24.09;31.31;101733.53;5070465;27;45480;-72
2023/03/03 11:13:12;;;;;;;;;13.00;8.25;;;;;24.12;31.24;101727.13;5062925;27;45585;-72
2023/03/03 11:16:00;;;;;;;;;8.50;7.50;;;;;24.16;31.29;101729.47;5076957;28;45460;-70
2023/03/03 11:18:38;;;;;;;;;10.00;8.75;;;;;24.20;31.02;101727.44;5058079;28;45570;-71
2023/03/03 11:21:25;;;;;;;;;8.75;7.75;;;;;24.23;31.28;101730.75;5074310;27;45362;-70
2023/03/03 11:24:04;;;;;;;;;10.75;8.50;;;;;24.24;31.10;101724.44;5058223;28;45383;-70
2023/03/03 11:26:42;;;;;;;;;9.50;9.00;;;;;24.24;30.56;101715.56;5063960;28;45397;-73
2023/03/03 11:29:25;;;;;;;;;13.50;10.50;;;;;24.24;30.30;101720.91;5065948;28;48507;-71
2023/03/03 11:32:15;;;;;;;;;13.67;10.67;;;;;24.19;29.91;101721.25;5027038;28;1174899;-72